Aeroporto :
LOGIN :

Iscrizione | Disclaimer

   EN    FR    IT 

 










Sommario :    VFR   VFR Marginale   IFR   IFR Intensivo   IFR Molto Intensivo
Visibilità : 
Base nubi : 
>= 8 km
>= 3000ft
5 / 8 km
1000 / 3000 ft
1500m / 5 km
500 / 1000 ft
800 / 1500m
200 / 500 ft
< 800m
< 200 ft
Simboli :   Temporali  Nebbia  Neve Forte  Precipitazioni Forti  Vento > 20 kt
SIGMETs :   Varie  Temporali  Ghiacco  Turbolenza  Onda orograficha  Ceneri Vulcaniche






- Altitudine del aeroporto : 126 ft
- Codice IATA : WIC


EGPC - Wick

ULTIMO METAR :
  • 251250Z 25006KT 9999 SCT016 04/01 Q0988

METARs OBSOLETI :
  • 251220Z 25005KT 9999 SCT016 04/01 Q0989
  • 251150Z 23005KT 190V260 9999 FEW008 SCT016 04/01 Q0989
  • 251120Z 22004KT 190V250 9999 FEW008 SCT016 04/01 Q0989
  • 251050Z VRB03KT 9999 VCSH FEW008 SCT016 03/02 Q0989
  • 251020Z 22003KT 9999 VCSH FEW008 SCT016 02/01 Q0989

TAF TAF EGPC
Valido dal 25 a 12 ore il 25 a 21 ore UTC


251055Z 2512/2521 27008KT 9999 SCT018
ATIS : +44 1955 607 596



MetMap, La meteo Aeronautica in un colpo d'occhio ! - Copyright ORBIFLY Dicembre 2007 - Disclaimer

ORBIFLY MET'MAP TEAM :

Programmazione e sviluppo : Alexandra Zaïnal
Concezione : Baudouin d'Aumeries
Aiuto per la programmazione : Marc-Olivier Méhu
Supporto tecnico e logistico : Manuel Goepfert
Aiuto per la traduzione : Arnaldo La Scala

Contatto : metmap@orbifly.com




FONTI E CREDITI :

   NOAA